createdAt,value
2022-08-31T00:02:40.607Z,22.94
2022-08-31T00:05:08.193Z,22.94
2022-08-31T00:07:35.212Z,22.93
2022-08-31T00:10:14.036Z,22.94
2022-08-31T00:12:46.063Z,22.89
2022-08-31T00:15:17.026Z,22.88
2022-08-31T00:17:44.365Z,22.88
2022-08-31T00:20:30.634Z,22.88
2022-08-31T00:22:59.649Z,22.87
2022-08-31T00:25:26.311Z,22.85
2022-08-31T00:27:53.011Z,22.91
2022-08-31T00:30:19.540Z,22.85
2022-08-31T00:32:46.075Z,22.83
2022-08-31T00:35:14.542Z,22.88
2022-08-31T00:37:41.085Z,22.84
2022-08-31T00:40:09.227Z,22.79
2022-08-31T00:42:36.029Z,22.78
2022-08-31T00:45:04.721Z,22.79
2022-08-31T00:47:31.950Z,22.74
2022-08-31T00:49:59.610Z,22.74
2022-08-31T00:52:33.382Z,22.74
2022-08-31T00:55:11.854Z,22.73
2022-08-31T00:57:41.561Z,22.73
2022-08-31T01:00:14.019Z,22.75
2022-08-31T01:02:40.808Z,22.71
2022-08-31T01:05:08.745Z,22.69
2022-08-31T01:07:36.168Z,22.71
2022-08-31T01:10:03.591Z,22.72
2022-08-31T01:12:30.260Z,22.73
2022-08-31T01:14:57.659Z,22.75
2022-08-31T01:17:24.273Z,22.73
2022-08-31T01:20:12.222Z,22.76
2022-08-31T01:23:12.851Z,22.73
2022-08-31T01:25:43.020Z,22.72
2022-08-31T01:28:10.276Z,22.71
2022-08-31T01:30:37.730Z,22.68
2022-08-31T01:33:05.076Z,22.67
2022-08-31T01:35:32.989Z,22.62
2022-08-31T01:38:00.285Z,22.64
2022-08-31T01:40:35.693Z,22.60
2022-08-31T01:43:02.354Z,22.62
2022-08-31T01:45:29.140Z,22.61
2022-08-31T01:47:55.856Z,22.59
2022-08-31T01:50:22.474Z,22.59
2022-08-31T01:52:48.993Z,22.61
2022-08-31T01:55:15.691Z,22.56
2022-08-31T01:57:42.324Z,22.57
2022-08-31T02:00:09.828Z,22.57
2022-08-31T02:02:36.706Z,22.56
2022-08-31T02:05:03.670Z,22.52
2022-08-31T02:07:30.272Z,22.54
2022-08-31T02:09:56.829Z,22.53
2022-08-31T02:12:23.456Z,22.51
2022-08-31T02:14:50.060Z,22.50
2022-08-31T02:17:16.686Z,22.46
2022-08-31T02:19:43.400Z,22.48
2022-08-31T02:22:09.977Z,22.41
2022-08-31T02:24:36.524Z,22.35
2022-08-31T02:27:03.170Z,22.38
2022-08-31T02:29:29.679Z,22.35
2022-08-31T02:31:57.172Z,22.37
2022-08-31T02:34:23.741Z,22.36
2022-08-31T02:36:50.300Z,22.37
2022-08-31T02:39:16.876Z,22.36
2022-08-31T02:41:43.566Z,22.34
2022-08-31T02:44:10.291Z,22.33
2022-08-31T02:46:36.858Z,22.32
2022-08-31T02:49:03.760Z,22.30
2022-08-31T02:51:30.347Z,22.30
2022-08-31T02:53:56.872Z,22.26
2022-08-31T02:56:23.872Z,22.26
2022-08-31T02:58:54.812Z,22.24
2022-08-31T03:01:24.046Z,22.24
2022-08-31T03:03:50.847Z,22.21
2022-08-31T03:06:18.897Z,22.20
2022-08-31T03:08:46.320Z,22.15
2022-08-31T03:11:13.479Z,22.10
2022-08-31T03:13:41.338Z,22.09
2022-08-31T03:16:09.425Z,22.04
2022-08-31T03:18:36.044Z,22.04
2022-08-31T03:21:02.552Z,22.00
2022-08-31T03:23:29.135Z,22.04
2022-08-31T03:25:55.875Z,22.03
2022-08-31T03:28:22.541Z,22.04
2022-08-31T03:30:49.366Z,22.00
2022-08-31T03:33:16.141Z,22.01
2022-08-31T03:35:44.240Z,22.01
2022-08-31T03:38:12.969Z,21.94
2022-08-31T03:40:43.808Z,21.95
2022-08-31T03:43:11.573Z,21.94
2022-08-31T03:45:42.596Z,21.92
2022-08-31T03:48:12.838Z,21.92
2022-08-31T03:50:40.635Z,21.93
2022-08-31T03:53:08.160Z,21.91
2022-08-31T03:55:36.408Z,21.91
2022-08-31T03:58:04.854Z,21.88
2022-08-31T04:00:34.016Z,21.91
2022-08-31T04:03:01.627Z,21.90
2022-08-31T04:05:34.482Z,21.90
2022-08-31T04:08:00.991Z,21.92
2022-08-31T04:10:27.501Z,21.92
2022-08-31T04:12:54.092Z,21.92
2022-08-31T04:15:22.422Z,21.91
2022-08-31T04:17:49.029Z,21.88
2022-08-31T04:20:18.759Z,21.90
2022-08-31T04:22:56.277Z,21.89
2022-08-31T04:25:22.782Z,21.88
2022-08-31T04:27:50.382Z,21.84
2022-08-31T04:30:17.992Z,21.85
2022-08-31T04:32:44.501Z,21.84
2022-08-31T04:35:11.103Z,21.82
2022-08-31T04:37:37.609Z,21.82
2022-08-31T04:40:18.191Z,21.81
2022-08-31T04:42:49.001Z,21.83
2022-08-31T04:45:17.033Z,21.81
2022-08-31T04:47:43.740Z,21.83
2022-08-31T04:50:12.806Z,21.82
2022-08-31T04:52:39.371Z,21.80
2022-08-31T04:55:07.227Z,21.81
2022-08-31T04:57:35.693Z,21.77
2022-08-31T05:00:05.611Z,21.80
2022-08-31T05:02:33.365Z,21.78
2022-08-31T05:05:00.897Z,21.80
2022-08-31T05:07:27.499Z,21.78
2022-08-31T05:09:54.213Z,21.79
2022-08-31T05:12:20.801Z,21.75
2022-08-31T05:14:47.899Z,21.77
2022-08-31T05:17:15.997Z,21.71
2022-08-31T05:19:43.937Z,21.75
2022-08-31T05:22:10.902Z,21.72
2022-08-31T05:24:38.924Z,21.75
2022-08-31T05:27:06.488Z,21.75
2022-08-31T05:29:33.051Z,21.76
2022-08-31T05:31:59.623Z,21.75
2022-08-31T05:34:26.817Z,21.77
2022-08-31T05:36:55.867Z,21.76
2022-08-31T05:39:23.065Z,21.76
2022-08-31T05:41:49.993Z,21.76
2022-08-31T05:44:17.489Z,21.79
2022-08-31T05:46:44.425Z,21.80
2022-08-31T05:49:11.897Z,21.81
2022-08-31T05:51:39.453Z,21.81
2022-08-31T05:54:07.499Z,21.84
2022-08-31T05:56:35.692Z,21.87
2022-08-31T05:59:02.389Z,21.89
2022-08-31T06:01:35.390Z,21.96
2022-08-31T06:04:02.704Z,21.97
2022-08-31T06:06:30.468Z,22.02
2022-08-31T06:08:57.732Z,22.06
2022-08-31T06:11:28.387Z,22.11
2022-08-31T06:13:57.117Z,22.17
2022-08-31T06:16:23.796Z,22.21
2022-08-31T06:18:51.290Z,22.24
2022-08-31T06:21:21.057Z,22.27
2022-08-31T06:23:50.053Z,22.27
2022-08-31T06:26:18.970Z,22.32
2022-08-31T06:28:48.932Z,22.34
2022-08-31T06:31:26.892Z,22.33
2022-08-31T06:33:55.890Z,22.37
2022-08-31T06:36:26.309Z,22.41
2022-08-31T06:38:56.554Z,22.45
2022-08-31T06:41:27.267Z,22.46
2022-08-31T06:43:54.433Z,22.51
2022-08-31T06:46:23.475Z,22.52
2022-08-31T06:48:53.580Z,22.55
2022-08-31T06:51:20.169Z,22.57
2022-08-31T06:53:46.937Z,22.65
2022-08-31T06:56:20.670Z,22.69
2022-08-31T06:58:53.514Z,22.72
2022-08-31T07:01:34.855Z,22.78
2022-08-31T07:04:05.491Z,22.79
2022-08-31T07:06:37.036Z,22.84
2022-08-31T07:09:06.414Z,22.88
2022-08-31T07:11:44.816Z,22.89
2022-08-31T07:14:18.699Z,22.86
2022-08-31T07:16:46.377Z,22.95
2022-08-31T07:19:14.007Z,22.98
2022-08-31T07:21:50.135Z,23.05
2022-08-31T07:24:23.073Z,23.06
2022-08-31T07:27:00.779Z,23.12
2022-08-31T07:29:36.586Z,23.15
2022-08-31T07:32:03.613Z,23.24
2022-08-31T07:34:31.289Z,23.27
2022-08-31T07:37:17.916Z,23.29
2022-08-31T07:40:07.493Z,23.29
2022-08-31T07:42:38.676Z,23.27
2022-08-31T07:45:12.250Z,23.28
2022-08-31T07:47:46.116Z,23.31
2022-08-31T07:50:14.767Z,23.33
2022-08-31T07:52:54.287Z,23.34
2022-08-31T07:55:25.939Z,23.37
2022-08-31T07:57:55.018Z,23.38
2022-08-31T08:00:25.579Z,23.38
2022-08-31T08:02:53.963Z,23.41
2022-08-31T08:05:27.036Z,23.46
2022-08-31T08:07:56.233Z,23.52
2022-08-31T08:10:24.247Z,23.58
2022-08-31T08:13:00.790Z,23.62
2022-08-31T08:15:33.891Z,23.62
2022-08-31T08:18:03.401Z,23.66
2022-08-31T08:20:37.856Z,23.67
2022-08-31T08:23:14.363Z,23.60
2022-08-31T08:25:45.085Z,23.74
2022-08-31T08:31:06.184Z,23.81
2022-08-31T08:33:35.189Z,23.83
2022-08-31T08:36:07.316Z,23.84
2022-08-31T08:38:35.016Z,23.89
2022-08-31T08:41:05.463Z,23.94
2022-08-31T08:43:35.499Z,23.97
2022-08-31T08:46:20.143Z,23.99
2022-08-31T08:48:55.498Z,24.01
2022-08-31T08:51:26.576Z,24.01
2022-08-31T08:53:59.943Z,24.09
2022-08-31T08:56:33.179Z,24.14
2022-08-31T08:59:00.726Z,24.14
2022-08-31T09:01:29.547Z,24.09
2022-08-31T09:04:21.875Z,24.06
2022-08-31T09:07:30.859Z,24.14
2022-08-31T09:10:25.793Z,24.15
2022-08-31T09:13:13.303Z,24.17
2022-08-31T09:15:58.921Z,24.19
2022-08-31T09:18:47.109Z,24.20
2022-08-31T09:21:34.461Z,24.21
2022-08-31T09:24:02.618Z,24.18
2022-08-31T09:26:50.336Z,24.22
2022-08-31T09:29:28.945Z,24.23
2022-08-31T09:32:07.014Z,24.26
2022-08-31T09:34:37.369Z,24.25
2022-08-31T09:37:21.527Z,24.25
2022-08-31T09:39:51.286Z,24.25
2022-08-31T09:42:31.514Z,24.27
2022-08-31T09:45:07.737Z,24.25
2022-08-31T09:48:01.221Z,24.24
2022-08-31T09:50:32.752Z,24.26
2022-08-31T09:53:32.769Z,24.25
2022-08-31T09:56:14.288Z,24.24
2022-08-31T09:59:03.113Z,24.20
2022-08-31T10:01:44.443Z,24.18
2022-08-31T10:04:15.962Z,24.16
2022-08-31T10:06:46.776Z,24.15
2022-08-31T10:09:37.227Z,24.15
2022-08-31T10:12:09.019Z,24.13
2022-08-31T10:14:52.270Z,24.16
2022-08-31T10:17:26.292Z,24.14
2022-08-31T10:20:09.807Z,24.14
2022-08-31T10:22:57.850Z,24.17
2022-08-31T10:25:33.714Z,24.17
2022-08-31T10:28:17.215Z,24.17
2022-08-31T10:31:23.880Z,24.16
2022-08-31T10:34:35.347Z,24.14
2022-08-31T10:37:26.014Z,24.12
2022-08-31T10:39:58.278Z,24.13
2022-08-31T10:42:29.995Z,24.14
2022-08-31T10:45:04.220Z,24.12
2022-08-31T10:47:41.556Z,24.09
2022-08-31T10:50:10.409Z,24.06
2022-08-31T10:52:48.268Z,24.11
2022-08-31T10:55:35.198Z,24.12
2022-08-31T10:58:11.922Z,24.13
2022-08-31T11:00:49.484Z,24.10
2022-08-31T11:03:21.899Z,24.14
2022-08-31T11:05:59.787Z,24.14
2022-08-31T11:08:55.908Z,24.12
2022-08-31T11:11:43.711Z,24.10
2022-08-31T11:14:45.071Z,24.09
2022-08-31T11:17:34.388Z,24.05
2022-08-31T11:20:26.067Z,24.08
2022-08-31T11:23:06.198Z,24.07
2022-08-31T11:26:11.022Z,24.06
2022-08-31T11:28:48.233Z,24.03
2022-08-31T11:31:24.121Z,24.08
2022-08-31T11:34:15.648Z,24.08
2022-08-31T11:36:46.940Z,24.08
2022-08-31T11:39:13.501Z,24.10
2022-08-31T11:41:46.457Z,24.10
2022-08-31T11:44:39.283Z,24.09
2022-08-31T11:47:07.118Z,24.06
2022-08-31T11:49:55.870Z,24.05
2022-08-31T11:52:24.481Z,24.07
2022-08-31T11:54:52.542Z,24.09
2022-08-31T11:57:35.621Z,24.11
2022-08-31T12:00:19.386Z,24.09
2022-08-31T12:02:46.073Z,24.10
2022-08-31T12:05:12.983Z,24.06
2022-08-31T12:07:45.120Z,24.12
2022-08-31T12:10:27.214Z,24.14
2022-08-31T12:13:09.389Z,24.16
2022-08-31T12:16:01.359Z,24.18
2022-08-31T12:18:58.754Z,24.16
2022-08-31T12:21:55.999Z,24.18
2022-08-31T12:24:43.832Z,24.18
2022-08-31T12:27:25.075Z,24.19
2022-08-31T12:29:51.803Z,24.16
2022-08-31T12:32:25.889Z,24.22
2022-08-31T12:35:02.593Z,24.24
2022-08-31T12:37:35.786Z,24.24
2022-08-31T12:40:26.208Z,24.23
2022-08-31T12:43:20.950Z,24.23
2022-08-31T12:46:13.648Z,24.23
2022-08-31T12:49:17.921Z,24.26
2022-08-31T12:52:12.045Z,24.28
2022-08-31T12:55:16.793Z,24.28
2022-08-31T12:58:04.847Z,24.27
2022-08-31T13:00:39.449Z,24.27
2022-08-31T13:03:14.386Z,24.24
2022-08-31T13:05:41.854Z,24.24
2022-08-31T13:08:24.771Z,24.30
2022-08-31T13:10:51.792Z,24.29
2022-08-31T13:13:28.609Z,24.34
2022-08-31T13:16:04.541Z,24.34
2022-08-31T13:18:31.446Z,24.36
2022-08-31T13:21:05.985Z,24.42
2022-08-31T13:23:36.193Z,24.38
2022-08-31T13:26:15.127Z,24.42
2022-08-31T13:28:42.014Z,24.44
2022-08-31T13:31:09.389Z,24.43
2022-08-31T13:33:40.218Z,24.42
2022-08-31T13:36:32.971Z,24.41
2022-08-31T13:39:23.457Z,24.46
2022-08-31T13:42:05.911Z,24.49
2022-08-31T13:44:39.251Z,24.50
2022-08-31T13:47:29.619Z,24.50
2022-08-31T13:50:08.836Z,24.50
2022-08-31T13:52:37.314Z,24.52
2022-08-31T13:55:12.059Z,24.54
2022-08-31T13:57:39.073Z,24.58
2022-08-31T14:00:35.284Z,24.58
2022-08-31T14:03:51.435Z,24.57
2022-08-31T14:06:25.722Z,24.59
2022-08-31T14:09:03.441Z,24.60
2022-08-31T14:11:31.512Z,24.59
2022-08-31T14:14:06.473Z,24.62
2022-08-31T14:16:37.550Z,24.60
2022-08-31T14:19:04.465Z,24.63
2022-08-31T14:21:35.084Z,24.68
2022-08-31T14:24:07.736Z,24.67
2022-08-31T14:26:37.264Z,24.72
2022-08-31T14:29:10.958Z,24.76
2022-08-31T14:31:52.133Z,24.77
2022-08-31T14:34:28.156Z,24.78
2022-08-31T14:37:06.868Z,24.80
2022-08-31T14:39:43.124Z,24.81
2022-08-31T14:42:18.864Z,24.85
2022-08-31T14:44:56.601Z,24.86
2022-08-31T14:47:26.079Z,24.82
2022-08-31T14:49:52.589Z,24.86
2022-08-31T14:52:19.286Z,24.83
2022-08-31T14:54:47.675Z,24.85
2022-08-31T14:57:19.125Z,24.86
2022-08-31T14:59:47.023Z,24.88
2022-08-31T15:02:21.187Z,24.86
2022-08-31T15:04:48.504Z,24.84
2022-08-31T15:07:16.452Z,24.78
2022-08-31T15:09:44.890Z,24.83
2022-08-31T15:12:14.826Z,24.87
2022-08-31T15:14:44.739Z,24.86
2022-08-31T15:17:19.242Z,24.86
2022-08-31T15:19:48.089Z,24.86
2022-08-31T15:22:15.954Z,24.89
2022-08-31T15:24:44.850Z,24.92
2022-08-31T15:27:13.596Z,24.94
2022-08-31T15:29:41.820Z,24.97
2022-08-31T15:32:16.679Z,24.99
2022-08-31T15:34:57.590Z,24.98
2022-08-31T15:37:31.665Z,24.95
2022-08-31T15:40:01.117Z,25.01
2022-08-31T15:42:29.533Z,25.04
2022-08-31T15:44:57.137Z,25.02
2022-08-31T15:47:48.894Z,25.07
2022-08-31T15:50:20.255Z,25.08
2022-08-31T15:52:51.791Z,25.05
2022-08-31T15:55:26.328Z,25.08
2022-08-31T15:57:55.128Z,25.11
2022-08-31T16:00:23.860Z,25.13
2022-08-31T16:02:53.791Z,25.13
2022-08-31T16:05:20.911Z,25.12
2022-08-31T16:07:48.199Z,25.10
2022-08-31T16:10:19.367Z,25.10
2022-08-31T16:12:47.001Z,25.11
2022-08-31T16:15:15.400Z,25.11
2022-08-31T16:17:42.149Z,25.14
2022-08-31T16:20:13.624Z,25.18
2022-08-31T16:22:41.970Z,25.18
2022-08-31T16:25:11.611Z,25.20
2022-08-31T16:27:39.773Z,25.19
2022-08-31T16:30:11.875Z,25.19
2022-08-31T16:32:38.675Z,25.19
2022-08-31T16:35:05.686Z,25.19
2022-08-31T16:37:33.183Z,25.21
2022-08-31T16:40:00.077Z,25.21
2022-08-31T16:42:26.822Z,25.21
2022-08-31T16:44:53.412Z,25.23
2022-08-31T16:47:21.476Z,25.22
2022-08-31T16:49:48.119Z,25.22
2022-08-31T16:52:26.537Z,25.23
2022-08-31T16:54:57.143Z,25.21
2022-08-31T16:57:27.580Z,25.21
2022-08-31T16:59:56.987Z,25.26
2022-08-31T17:02:24.987Z,25.26
2022-08-31T17:04:53.653Z,25.23
2022-08-31T17:07:22.600Z,25.23
2022-08-31T17:09:49.147Z,25.24
2022-08-31T17:12:19.205Z,25.23
2022-08-31T17:14:50.175Z,25.23
2022-08-31T17:17:26.707Z,25.18
2022-08-31T17:19:58.709Z,25.21
2022-08-31T17:22:32.675Z,25.18
2022-08-31T17:25:02.682Z,25.21
2022-08-31T17:27:29.545Z,25.21
2022-08-31T17:29:56.436Z,25.20
2022-08-31T17:32:26.936Z,25.22
2022-08-31T17:34:54.974Z,25.21
2022-08-31T17:37:26.445Z,25.21
2022-08-31T17:39:53.807Z,25.18
2022-08-31T17:42:22.018Z,25.21
2022-08-31T17:44:52.106Z,25.17
2022-08-31T17:47:20.283Z,25.18
2022-08-31T17:49:47.007Z,25.19
2022-08-31T17:52:13.886Z,25.18
2022-08-31T17:54:43.181Z,25.18
2022-08-31T17:57:13.626Z,25.17
2022-08-31T17:59:43.533Z,25.17
2022-08-31T18:02:16.694Z,25.14
2022-08-31T18:04:43.807Z,25.13
2022-08-31T18:07:11.504Z,25.15
2022-08-31T18:09:40.693Z,25.13
2022-08-31T18:12:08.565Z,25.11
2022-08-31T18:14:38.071Z,25.10
2022-08-31T18:17:08.308Z,25.06
2022-08-31T18:19:35.725Z,25.09
2022-08-31T18:22:03.480Z,25.04
2022-08-31T18:24:34.157Z,25.06
2022-08-31T18:27:06.974Z,25.05
2022-08-31T18:29:37.446Z,25.06
2022-08-31T18:32:06.455Z,25.05
2022-08-31T18:34:36.703Z,25.03
2022-08-31T18:37:04.255Z,25.02
2022-08-31T18:39:52.125Z,24.90
2022-08-31T18:42:40.896Z,24.97
2022-08-31T18:45:20.640Z,24.95
2022-08-31T18:50:50.298Z,24.90
2022-08-31T18:53:28.393Z,24.89
2022-08-31T18:56:08.314Z,24.89
2022-08-31T18:58:36.211Z,24.85
2022-08-31T19:01:03.354Z,24.82
2022-08-31T19:03:30.392Z,24.82
2022-08-31T19:05:57.562Z,24.79
2022-08-31T19:08:26.153Z,24.79
2022-08-31T19:10:53.099Z,24.77
2022-08-31T19:13:19.684Z,24.77
2022-08-31T19:15:46.324Z,24.70
2022-08-31T19:18:13.213Z,24.71
2022-08-31T19:20:40.852Z,24.69
2022-08-31T19:23:08.270Z,24.69
2022-08-31T19:25:42.224Z,24.66
2022-08-31T19:28:08.792Z,24.67
2022-08-31T19:30:36.271Z,24.67
2022-08-31T19:33:07.407Z,24.64
2022-08-31T19:35:36.130Z,24.63
2022-08-31T19:38:02.963Z,24.63
2022-08-31T19:40:38.126Z,24.59
2022-08-31T19:45:53.602Z,24.54
2022-08-31T19:48:23.188Z,24.52
2022-08-31T19:50:50.434Z,24.49
2022-08-31T19:53:20.844Z,24.45
2022-08-31T19:55:50.760Z,24.41
2022-08-31T19:58:19.932Z,24.38
2022-08-31T20:00:48.039Z,24.38
2022-08-31T20:03:15.718Z,24.37
2022-08-31T20:05:43.376Z,24.35
2022-08-31T20:08:10.940Z,24.32
2022-08-31T20:10:46.691Z,24.29
2022-08-31T20:13:13.400Z,24.27
2022-08-31T20:15:43.186Z,24.25
2022-08-31T20:18:11.795Z,24.22
2022-08-31T20:20:45.140Z,24.20
2022-08-31T20:23:16.650Z,24.18
2022-08-31T20:25:45.648Z,24.14
2022-08-31T20:28:13.532Z,24.14
2022-08-31T20:30:41.534Z,24.12
2022-08-31T20:33:09.602Z,24.09
2022-08-31T20:35:47.021Z,24.07
2022-08-31T20:38:15.898Z,24.01
2022-08-31T20:40:44.292Z,24.01
2022-08-31T20:43:12.790Z,23.96
2022-08-31T20:45:41.493Z,23.93
2022-08-31T20:48:27.487Z,23.92
2022-08-31T20:50:55.729Z,23.90
2022-08-31T20:53:25.076Z,23.87
2022-08-31T20:56:09.931Z,23.87
2022-08-31T20:58:37.196Z,23.86
2022-08-31T21:01:07.374Z,23.83
2022-08-31T21:03:34.751Z,23.82
2022-08-31T21:06:08.321Z,23.82
2022-08-31T21:08:38.369Z,23.77
2022-08-31T21:11:16.880Z,23.77
2022-08-31T21:13:44.623Z,23.77
2022-08-31T21:16:11.534Z,23.76
2022-08-31T21:18:40.028Z,23.74
2022-08-31T21:21:08.915Z,23.73
2022-08-31T21:23:36.870Z,23.72
2022-08-31T21:26:04.934Z,23.70
2022-08-31T21:28:31.489Z,23.69
2022-08-31T21:31:16.554Z,23.71
2022-08-31T21:33:45.948Z,23.69
2022-08-31T21:36:17.644Z,23.68
2022-08-31T21:38:45.153Z,23.66
2022-08-31T21:41:14.632Z,23.60
2022-08-31T21:43:41.163Z,23.62
2022-08-31T21:46:10.700Z,23.59
2022-08-31T21:48:39.830Z,23.58
2022-08-31T21:51:21.670Z,23.56
2022-08-31T21:53:54.355Z,23.56
2022-08-31T21:56:23.672Z,23.56
2022-08-31T21:58:50.736Z,23.54
2022-08-31T22:01:18.653Z,23.53
2022-08-31T22:03:50.874Z,23.52
2022-08-31T22:06:26.741Z,23.46
2022-08-31T22:09:00.165Z,23.49
2022-08-31T22:11:29.883Z,23.48
2022-08-31T22:13:58.637Z,23.46
2022-08-31T22:16:26.368Z,23.41
2022-08-31T22:19:03.038Z,23.42
2022-08-31T22:21:34.111Z,23.40
2022-08-31T22:24:05.011Z,23.41
2022-08-31T22:26:37.773Z,23.41
2022-08-31T22:29:06.215Z,23.36
2022-08-31T22:31:34.956Z,23.38
2022-08-31T22:34:01.662Z,23.38
2022-08-31T22:36:32.298Z,23.38
2022-08-31T22:39:05.283Z,23.36
2022-08-31T22:41:33.507Z,23.30
2022-08-31T22:44:00.561Z,23.32
2022-08-31T22:46:28.330Z,23.21
2022-08-31T22:48:55.554Z,23.26
2022-08-31T22:51:22.564Z,23.24
2022-08-31T22:53:51.678Z,23.23
2022-08-31T22:56:30.393Z,23.23
2022-08-31T22:58:59.408Z,23.20
2022-08-31T23:01:33.076Z,23.20
2022-08-31T23:04:01.437Z,23.14
2022-08-31T23:06:30.318Z,23.18
2022-08-31T23:08:58.092Z,23.18
2022-08-31T23:11:25.371Z,23.17
2022-08-31T23:13:58.770Z,23.16
2022-08-31T23:16:33.401Z,23.08
2022-08-31T23:19:12.075Z,23.04
2022-08-31T23:21:46.726Z,23.02
2022-08-31T23:24:31.944Z,23.01
2022-08-31T23:27:04.144Z,22.99
2022-08-31T23:29:53.404Z,22.96
2022-08-31T23:32:27.753Z,22.94
2022-08-31T23:34:58.398Z,22.94
2022-08-31T23:37:26.147Z,22.88
2022-08-31T23:39:54.646Z,22.84
2022-08-31T23:42:23.577Z,22.87
2022-08-31T23:44:50.422Z,22.87
2022-08-31T23:47:21.335Z,22.84
2022-08-31T23:49:51.083Z,22.86
2022-08-31T23:52:21.326Z,22.87
2022-08-31T23:54:49.900Z,22.84
2022-08-31T23:57:31.585Z,22.82
